KPF2L EBBR-DNCA
Flight info
| Callsign | KPF2L |
|---|---|
| Flight time | N/A |
| Altitude | 35000 |
| Route | EBBR/07L CIV N872 MEDIL DCT KOVIN DCT RESMI UN857 DISAK DCT DIRMO DCT ETAMO DCT ADEKA DCT MOKDI DCT MEN DCT AMLIR DCT FJR UM731 DIVKO DCT JUSQO DCT FIRRA DCT SUXER DCT KAMER UR978 CSO UM998 BOD UR978 AS UA604 OBUDU |
| Aircraft | CL60/M-SBDE1E2E3FGHIJ1J4J5J7M3RWXYZ/LB1V1D1 |
Departure
| Time | N/A |
|---|---|
| Airport | Brussels Airport (EBBR) |
Arrival
| Time | 2026-05-08 16:44 |
|---|---|
| Airport | Margaret Ekpo International Airport (DNCA) |
| Time | Latitude | Longitude | Altitude | Speed | Heading |
|---|---|---|---|---|---|
| 2026-05-08 12:56 | 33.34832 | 6.69604 | 36913 ft | 452 kts | 186° |
| 2026-05-08 12:56 | 33.28494 | 6.69790 | 36905 ft | 452 kts | 185° |
| 2026-05-08 12:57 | 33.22210 | 6.69973 | 36905 ft | 452 kts | 186° |
| 2026-05-08 12:57 | 33.15886 | 6.70156 | 36906 ft | 453 kts | 186° |
| 2026-05-08 12:58 | 33.13154 | 6.70235 | 36907 ft | 453 kts | 185° |
| 2026-05-08 12:58 | 33.42271 | 6.69386 | 36926 ft | 452 kts | 186° |
| 2026-05-08 12:59 | 33.35963 | 6.69571 | 36912 ft | 452 kts | 186° |
| 2026-05-08 12:59 | 33.29652 | 6.69755 | 36904 ft | 452 kts | 186° |
| 2026-05-08 13:00 | 33.23371 | 6.69937 | 36904 ft | 452 kts | 185° |
| 2026-05-08 13:00 | 33.17078 | 6.70120 | 36900 ft | 452 kts | 186° |
| 2026-05-08 13:01 | 33.10783 | 6.70302 | 36906 ft | 453 kts | 186° |
| 2026-05-08 13:01 | 33.04480 | 6.70484 | 36907 ft | 454 kts | 185° |
| 2026-05-08 13:02 | 32.98119 | 6.70667 | 36905 ft | 454 kts | 185° |
| 2026-05-08 13:02 | 32.91818 | 6.70849 | 36904 ft | 454 kts | 185° |
| 2026-05-08 13:03 | 32.85493 | 6.71030 | 36906 ft | 454 kts | 185° |
| 2026-05-08 13:03 | 32.79135 | 6.71213 | 36913 ft | 454 kts | 185° |
| 2026-05-08 13:04 | 32.72815 | 6.71393 | 36922 ft | 454 kts | 185° |
| 2026-05-08 13:04 | 32.66444 | 6.71575 | 36918 ft | 454 kts | 185° |
| 2026-05-08 13:05 | 32.60147 | 6.71755 | 36918 ft | 454 kts | 185° |
| 2026-05-08 13:05 | 32.53823 | 6.71935 | 36927 ft | 454 kts | 185° |
| 2026-05-08 13:06 | 32.47463 | 6.72116 | 36929 ft | 455 kts | 185° |
| 2026-05-08 13:06 | 32.41139 | 6.72295 | 36927 ft | 455 kts | 185° |
| 2026-05-08 13:07 | 32.34822 | 6.72474 | 36920 ft | 455 kts | 185° |
| 2026-05-08 13:07 | 32.28447 | 6.72655 | 36920 ft | 455 kts | 185° |
| 2026-05-08 13:08 | 32.22126 | 6.72834 | 36920 ft | 455 kts | 185° |
| 2026-05-08 13:08 | 32.15799 | 6.73012 | 36917 ft | 455 kts | 185° |
| 2026-05-08 13:09 | 32.09472 | 6.73190 | 36915 ft | 456 kts | 185° |
| 2026-05-08 13:09 | 32.03094 | 6.73369 | 36912 ft | 457 kts | 185° |
| 2026-05-08 13:10 | 31.96768 | 6.73547 | 36911 ft | 457 kts | 185° |
| 2026-05-08 13:10 | 31.90412 | 6.73726 | 36908 ft | 457 kts | 185° |
| 2026-05-08 13:11 | 31.84031 | 6.73904 | 36909 ft | 457 kts | 185° |
| 2026-05-08 13:11 | 31.77677 | 6.74082 | 36906 ft | 457 kts | 185° |
| 2026-05-08 13:12 | 31.71312 | 6.74260 | 36911 ft | 457 kts | 185° |
| 2026-05-08 13:12 | 31.64935 | 6.74438 | 36905 ft | 458 kts | 185° |
| 2026-05-08 13:13 | 31.58555 | 6.74616 | 36904 ft | 458 kts | 185° |
| 2026-05-08 13:13 | 31.52157 | 6.74794 | 36904 ft | 458 kts | 185° |
| 2026-05-08 13:14 | 31.45754 | 6.74972 | 36901 ft | 458 kts | 185° |
| 2026-05-08 13:14 | 31.39392 | 6.75148 | 36904 ft | 459 kts | 185° |
| 2026-05-08 13:15 | 31.32990 | 6.75326 | 36903 ft | 459 kts | 185° |
| 2026-05-08 13:15 | 31.26589 | 6.75503 | 36905 ft | 460 kts | 185° |
| 2026-05-08 13:16 | 31.20215 | 6.75679 | 36905 ft | 460 kts | 185° |
| 2026-05-08 13:16 | 31.13804 | 6.75856 | 36905 ft | 460 kts | 185° |
| 2026-05-08 13:17 | 31.07384 | 6.76033 | 36906 ft | 461 kts | 185° |
| 2026-05-08 13:17 | 31.00979 | 6.76210 | 36905 ft | 461 kts | 185° |
| 2026-05-08 13:18 | 30.94531 | 6.76387 | 36908 ft | 461 kts | 185° |
| 2026-05-08 13:18 | 30.88106 | 6.76563 | 36902 ft | 462 kts | 185° |
| 2026-05-08 13:19 | 30.81654 | 6.76741 | 36894 ft | 462 kts | 185° |
| 2026-05-08 13:19 | 30.75250 | 6.76916 | 36896 ft | 462 kts | 185° |
| 2026-05-08 13:20 | 30.68827 | 6.77092 | 36910 ft | 462 kts | 185° |
| 2026-05-08 13:20 | 30.62342 | 6.77269 | 36909 ft | 463 kts | 185° |
| 2026-05-08 13:21 | 30.55909 | 6.77444 | 36907 ft | 464 kts | 185° |
| 2026-05-08 13:21 | 30.49461 | 6.77620 | 36913 ft | 463 kts | 185° |
| 2026-05-08 13:22 | 30.43016 | 6.77796 | 36913 ft | 463 kts | 185° |
| 2026-05-08 13:22 | 30.36536 | 6.77972 | 36918 ft | 463 kts | 185° |
| 2026-05-08 13:23 | 30.30054 | 6.78148 | 36924 ft | 464 kts | 185° |
| 2026-05-08 13:23 | 30.23592 | 6.78323 | 36925 ft | 464 kts | 185° |
| 2026-05-08 13:24 | 30.17124 | 6.78498 | 36925 ft | 464 kts | 185° |
| 2026-05-08 13:24 | 30.10646 | 6.78673 | 36925 ft | 464 kts | 185° |
| 2026-05-08 13:25 | 30.04209 | 6.78847 | 36928 ft | 464 kts | 185° |
| 2026-05-08 13:25 | 29.97733 | 6.79022 | 36927 ft | 465 kts | 185° |
| 2026-05-08 13:26 | 29.91278 | 6.79195 | 36928 ft | 465 kts | 185° |
| 2026-05-08 13:26 | 29.84741 | 6.79371 | 36931 ft | 465 kts | 185° |
| 2026-05-08 13:27 | 29.78276 | 6.79545 | 36937 ft | 465 kts | 185° |
| 2026-05-08 13:27 | 29.71824 | 6.79719 | 36933 ft | 465 kts | 185° |
| 2026-05-08 13:28 | 29.65322 | 6.79893 | 36932 ft | 465 kts | 185° |
| 2026-05-08 13:28 | 29.58880 | 6.80065 | 36932 ft | 465 kts | 185° |
| 2026-05-08 13:29 | 29.52377 | 6.80239 | 36933 ft | 465 kts | 185° |
| 2026-05-08 13:29 | 29.45940 | 6.80411 | 36932 ft | 465 kts | 185° |
| 2026-05-08 13:30 | 29.39464 | 6.80584 | 36933 ft | 465 kts | 185° |
| 2026-05-08 13:30 | 29.32985 | 6.80757 | 36939 ft | 465 kts | 185° |
| 2026-05-08 13:31 | 29.26489 | 6.80929 | 36949 ft | 465 kts | 185° |
| 2026-05-08 13:31 | 29.20006 | 6.81102 | 36953 ft | 466 kts | 185° |
| 2026-05-08 13:32 | 29.13527 | 6.81274 | 36953 ft | 466 kts | 184° |
| 2026-05-08 13:32 | 29.07050 | 6.81446 | 36961 ft | 465 kts | 185° |
| 2026-05-08 13:33 | 29.00573 | 6.81618 | 36970 ft | 464 kts | 185° |
| 2026-05-08 13:33 | 28.94128 | 6.81789 | 36967 ft | 465 kts | 185° |
| 2026-05-08 13:34 | 28.87627 | 6.81961 | 36960 ft | 465 kts | 185° |
| 2026-05-08 13:34 | 28.81127 | 6.82133 | 36963 ft | 465 kts | 185° |
| 2026-05-08 13:35 | 28.74642 | 6.82304 | 36953 ft | 466 kts | 185° |
| 2026-05-08 13:35 | 28.68160 | 6.82476 | 36964 ft | 465 kts | 185° |
| 2026-05-08 13:36 | 28.61670 | 6.82647 | 36963 ft | 465 kts | 185° |
| 2026-05-08 13:36 | 28.55194 | 6.82818 | 36968 ft | 465 kts | 185° |
| 2026-05-08 13:37 | 28.48705 | 6.82989 | 36981 ft | 465 kts | 185° |
| 2026-05-08 13:37 | 28.44877 | 6.83089 | 36973 ft | 466 kts | 185° |
| 2026-05-08 13:38 | 28.38356 | 6.83261 | 36980 ft | 466 kts | 185° |
| 2026-05-08 13:38 | 28.31865 | 6.83432 | 36987 ft | 466 kts | 184° |
| 2026-05-08 13:39 | 28.25341 | 6.83603 | 36977 ft | 465 kts | 185° |
| 2026-05-08 13:39 | 28.18802 | 6.83775 | 37137 ft | 465 kts | 185° |
| 2026-05-08 13:40 | 28.15582 | 6.83861 | 37464 ft | 461 kts | 185° |
| 2026-05-08 13:40 | 28.12411 | 6.83999 | 37824 ft | 458 kts | 182° |
| 2026-05-08 13:40 | 28.09187 | 6.84345 | 38165 ft | 456 kts | 181° |
| 2026-05-08 13:40 | 28.06038 | 6.84702 | 38396 ft | 454 kts | 181° |
| 2026-05-08 13:41 | 28.02898 | 6.85055 | 38561 ft | 453 kts | 181° |
| 2026-05-08 13:41 | 27.99764 | 6.85406 | 38705 ft | 453 kts | 181° |
| 2026-05-08 13:41 | 27.93435 | 6.86113 | 38922 ft | 454 kts | 181° |
| 2026-05-08 13:42 | 27.87100 | 6.86817 | 38971 ft | 457 kts | 181° |
| 2026-05-08 13:42 | 27.80726 | 6.87524 | 38976 ft | 461 kts | 181° |
| 2026-05-08 13:43 | 27.74287 | 6.88237 | 38970 ft | 464 kts | 181° |
| 2026-05-08 13:43 | 27.67813 | 6.88953 | 38964 ft | 465 kts | 181° |
| 2026-05-08 13:44 | 27.61320 | 6.89671 | 38977 ft | 465 kts | 181° |
| 2026-05-08 13:44 | 27.54863 | 6.90384 | 38977 ft | 464 kts | 181° |
| 2026-05-08 13:45 | 27.48419 | 6.91094 | 38984 ft | 464 kts | 181° |
| 2026-05-08 13:45 | 27.41946 | 6.91807 | 38975 ft | 463 kts | 181° |
| 2026-05-08 13:46 | 27.35517 | 6.92513 | 38985 ft | 462 kts | 181° |
| 2026-05-08 13:46 | 27.29090 | 6.93218 | 38984 ft | 462 kts | 182° |
| 2026-05-08 13:47 | 27.22680 | 6.93921 | 38978 ft | 461 kts | 182° |
| 2026-05-08 13:47 | 27.16241 | 6.94625 | 38982 ft | 460 kts | 182° |
| 2026-05-08 13:48 | 27.09840 | 6.95325 | 38979 ft | 460 kts | 182° |
| 2026-05-08 13:48 | 27.03467 | 6.96021 | 38986 ft | 459 kts | 182° |
| 2026-05-08 13:49 | 26.97066 | 6.96719 | 38992 ft | 459 kts | 182° |
| 2026-05-08 13:49 | 26.90661 | 6.97417 | 39031 ft | 459 kts | 182° |
| 2026-05-08 13:50 | 26.84292 | 6.98110 | 39034 ft | 458 kts | 182° |
| 2026-05-08 13:50 | 26.77894 | 6.98806 | 39062 ft | 458 kts | 182° |
| 2026-05-08 13:51 | 26.71526 | 6.99497 | 39070 ft | 459 kts | 183° |
| 2026-05-08 13:51 | 26.65118 | 7.00192 | 39059 ft | 459 kts | 183° |
| 2026-05-08 13:52 | 26.58758 | 7.00881 | 39035 ft | 459 kts | 183° |
| 2026-05-08 13:52 | 26.52382 | 7.01572 | 39050 ft | 458 kts | 183° |
| 2026-05-08 13:53 | 26.45976 | 7.02264 | 39016 ft | 458 kts | 183° |
| 2026-05-08 13:53 | 26.39646 | 7.02948 | 39055 ft | 458 kts | 183° |
| 2026-05-08 13:54 | 26.33243 | 7.03639 | 39073 ft | 458 kts | 184° |
| 2026-05-08 13:54 | 26.26880 | 7.04325 | 39066 ft | 458 kts | 184° |
| 2026-05-08 13:55 | 26.20514 | 7.05010 | 39075 ft | 458 kts | 184° |
| 2026-05-08 13:56 | 26.10939 | 7.06040 | 39129 ft | 457 kts | 184° |
| 2026-05-08 13:56 | 26.04601 | 7.06722 | 39171 ft | 456 kts | 184° |
| 2026-05-08 13:57 | 25.98213 | 7.07409 | 39195 ft | 457 kts | 184° |
| 2026-05-08 13:57 | 25.91855 | 7.08104 | 39173 ft | 458 kts | 184° |
| 2026-05-08 13:58 | 25.85461 | 7.08804 | 39172 ft | 458 kts | 184° |
| 2026-05-08 13:58 | 25.79085 | 7.09501 | 39160 ft | 457 kts | 184° |
| 2026-05-08 13:59 | 25.72733 | 7.10195 | 39163 ft | 456 kts | 184° |
| 2026-05-08 13:59 | 25.66412 | 7.10884 | 39186 ft | 455 kts | 184° |
| 2026-05-08 14:00 | 25.60049 | 7.11575 | 39189 ft | 456 kts | 184° |
| 2026-05-08 14:00 | 25.53713 | 7.12264 | 39204 ft | 457 kts | 184° |
| 2026-05-08 14:01 | 25.47340 | 7.12956 | 39231 ft | 457 kts | 184° |
| 2026-05-08 14:01 | 25.40973 | 7.13647 | 39229 ft | 457 kts | 185° |
| 2026-05-08 14:02 | 25.34597 | 7.14339 | 39212 ft | 455 kts | 185° |
| 2026-05-08 14:02 | 25.28317 | 7.15019 | 39196 ft | 455 kts | 185° |
| 2026-05-08 14:03 | 25.21975 | 7.15704 | 39205 ft | 455 kts | 185° |
| 2026-05-08 14:03 | 25.15647 | 7.16388 | 39210 ft | 455 kts | 185° |
| 2026-05-08 14:04 | 25.09317 | 7.17070 | 39210 ft | 456 kts | 185° |
| 2026-05-08 14:04 | 25.02946 | 7.17756 | 39218 ft | 456 kts | 185° |
| 2026-05-08 14:05 | 24.96629 | 7.18437 | 39214 ft | 454 kts | 185° |
| 2026-05-08 14:05 | 24.90326 | 7.19117 | 39222 ft | 454 kts | 185° |
| 2026-05-08 14:06 | 24.83991 | 7.19800 | 39222 ft | 454 kts | 185° |
| 2026-05-08 14:06 | 24.77695 | 7.20477 | 39216 ft | 454 kts | 185° |
| 2026-05-08 14:07 | 24.71395 | 7.21155 | 39228 ft | 454 kts | 185° |
| 2026-05-08 14:07 | 24.65048 | 7.21837 | 39237 ft | 455 kts | 185° |
| 2026-05-08 14:08 | 24.58700 | 7.22518 | 39241 ft | 455 kts | 185° |
| 2026-05-08 14:08 | 24.52394 | 7.23194 | 39243 ft | 455 kts | 185° |
| 2026-05-08 14:09 | 24.46048 | 7.23874 | 39252 ft | 455 kts | 185° |
| 2026-05-08 14:09 | 24.39727 | 7.24550 | 39255 ft | 455 kts | 185° |
| 2026-05-08 14:10 | 24.33378 | 7.25228 | 39256 ft | 456 kts | 185° |
| 2026-05-08 14:10 | 24.26820 | 7.25928 | 39260 ft | 456 kts | 185° |
| 2026-05-08 14:11 | 24.20497 | 7.26602 | 39272 ft | 457 kts | 185° |
| 2026-05-08 14:11 | 24.14127 | 7.27280 | 39266 ft | 457 kts | 184° |
| 2026-05-08 14:12 | 24.07779 | 7.27957 | 39278 ft | 456 kts | 185° |
| 2026-05-08 14:12 | 24.01431 | 7.28631 | 39295 ft | 456 kts | 185° |
| 2026-05-08 14:13 | 23.95087 | 7.29304 | 39278 ft | 457 kts | 184° |
| 2026-05-08 14:13 | 23.88694 | 7.29981 | 39277 ft | 457 kts | 184° |
| 2026-05-08 14:14 | 23.82304 | 7.30658 | 39261 ft | 457 kts | 185° |
| 2026-05-08 14:14 | 23.75962 | 7.31328 | 39257 ft | 459 kts | 184° |
| 2026-05-08 14:15 | 23.69569 | 7.32003 | 39254 ft | 461 kts | 184° |
| 2026-05-08 14:15 | 23.63131 | 7.32681 | 39255 ft | 463 kts | 184° |
| 2026-05-08 14:16 | 23.56700 | 7.33360 | 39234 ft | 463 kts | 184° |
| 2026-05-08 14:16 | 23.50260 | 7.34050 | 39234 ft | 463 kts | 184° |
| 2026-05-08 14:17 | 23.43835 | 7.34950 | 39224 ft | 467 kts | 182° |
| 2026-05-08 14:17 | 23.37342 | 7.35897 | 39217 ft | 469 kts | 181° |
| 2026-05-08 14:18 | 23.30843 | 7.36842 | 39211 ft | 470 kts | 182° |
| 2026-05-08 14:18 | 23.24324 | 7.37787 | 39202 ft | 471 kts | 181° |
| 2026-05-08 14:19 | 23.17765 | 7.38736 | 39192 ft | 471 kts | 182° |
| 2026-05-08 14:19 | 23.11218 | 7.39680 | 39192 ft | 472 kts | 181° |
| 2026-05-08 14:20 | 23.04664 | 7.40624 | 39169 ft | 474 kts | 181° |
| 2026-05-08 14:20 | 22.98102 | 7.41567 | 39163 ft | 474 kts | 181° |
| 2026-05-08 14:21 | 22.91535 | 7.42510 | 39151 ft | 475 kts | 181° |
| 2026-05-08 14:21 | 22.84946 | 7.43454 | 39133 ft | 476 kts | 181° |
| 2026-05-08 14:22 | 22.78363 | 7.44396 | 39116 ft | 477 kts | 181° |
| 2026-05-08 14:22 | 22.71731 | 7.45344 | 39107 ft | 477 kts | 181° |
| 2026-05-08 14:23 | 22.65138 | 7.46286 | 39094 ft | 478 kts | 181° |
| 2026-05-08 14:23 | 22.58486 | 7.47235 | 39107 ft | 477 kts | 181° |
| 2026-05-08 14:24 | 22.51886 | 7.48174 | 39100 ft | 478 kts | 181° |
| 2026-05-08 14:24 | 22.45264 | 7.49117 | 39089 ft | 479 kts | 181° |
| 2026-05-08 14:25 | 22.38638 | 7.50059 | 39067 ft | 478 kts | 181° |
| 2026-05-08 14:25 | 22.32048 | 7.50995 | 39067 ft | 478 kts | 181° |
| 2026-05-08 14:26 | 22.25422 | 7.51935 | 39049 ft | 478 kts | 181° |
| 2026-05-08 14:26 | 22.18805 | 7.52873 | 39041 ft | 479 kts | 181° |
| 2026-05-08 14:27 | 22.12162 | 7.53813 | 39033 ft | 479 kts | 181° |
| 2026-05-08 14:27 | 22.05539 | 7.54750 | 39026 ft | 479 kts | 181° |
| 2026-05-08 14:28 | 21.98893 | 7.55689 | 39013 ft | 479 kts | 181° |
| 2026-05-08 14:28 | 21.92249 | 7.56626 | 39007 ft | 480 kts | 181° |
| 2026-05-08 14:29 | 21.85569 | 7.57567 | 39000 ft | 480 kts | 180° |
| 2026-05-08 14:29 | 21.78899 | 7.58507 | 38991 ft | 481 kts | 180° |
| 2026-05-08 14:30 | 21.72248 | 7.59443 | 38985 ft | 481 kts | 180° |
| 2026-05-08 14:30 | 21.68357 | 7.59990 | 38985 ft | 481 kts | 180° |
| 2026-05-08 14:31 | 21.61912 | 7.60896 | 38981 ft | 481 kts | 180° |
| 2026-05-08 14:31 | 21.55235 | 7.61833 | 38981 ft | 481 kts | 180° |
| 2026-05-08 14:32 | 21.45212 | 7.63239 | 38974 ft | 482 kts | 180° |
| 2026-05-08 14:32 | 21.38566 | 7.64169 | 38971 ft | 483 kts | 180° |
| 2026-05-08 14:33 | 21.31855 | 7.65108 | 38970 ft | 483 kts | 180° |
| 2026-05-08 14:33 | 21.25129 | 7.66049 | 38964 ft | 483 kts | 180° |
| 2026-05-08 14:34 | 21.18494 | 7.66976 | 38960 ft | 483 kts | 180° |
| 2026-05-08 14:34 | 21.11769 | 7.67914 | 38962 ft | 483 kts | 180° |
| 2026-05-08 14:35 | 21.05098 | 7.68844 | 38964 ft | 484 kts | 180° |
| 2026-05-08 14:35 | 20.98396 | 7.69777 | 38961 ft | 484 kts | 180° |
| 2026-05-08 14:36 | 20.91652 | 7.70441 | 38954 ft | 481 kts | 183° |
| 2026-05-08 14:36 | 20.84964 | 7.70974 | 38953 ft | 481 kts | 183° |
| 2026-05-08 14:37 | 20.78245 | 7.71511 | 38950 ft | 481 kts | 183° |
| 2026-05-08 14:37 | 20.71537 | 7.72048 | 38950 ft | 481 kts | 182° |
| 2026-05-08 14:38 | 20.64845 | 7.72583 | 38949 ft | 481 kts | 182° |
| 2026-05-08 14:38 | 20.58152 | 7.73118 | 38946 ft | 480 kts | 182° |
| 2026-05-08 14:39 | 20.51482 | 7.73652 | 38945 ft | 480 kts | 182° |
| 2026-05-08 14:39 | 20.44802 | 7.74186 | 38944 ft | 479 kts | 182° |
| 2026-05-08 14:40 | 20.38106 | 7.74721 | 38945 ft | 479 kts | 182° |
| 2026-05-08 14:40 | 20.31446 | 7.75253 | 38948 ft | 479 kts | 182° |
| 2026-05-08 14:41 | 20.24753 | 7.75787 | 38959 ft | 479 kts | 182° |
| 2026-05-08 14:41 | 20.18116 | 7.76316 | 38968 ft | 479 kts | 182° |
| 2026-05-08 14:42 | 20.11433 | 7.76848 | 38975 ft | 479 kts | 182° |
| 2026-05-08 14:42 | 20.04785 | 7.77377 | 38977 ft | 478 kts | 182° |
| 2026-05-08 14:43 | 19.98098 | 7.77910 | 38977 ft | 477 kts | 182° |
| 2026-05-08 14:43 | 19.91492 | 7.78435 | 38977 ft | 477 kts | 182° |
| 2026-05-08 14:44 | 19.84798 | 7.78966 | 38968 ft | 477 kts | 182° |
| 2026-05-08 14:44 | 19.78195 | 7.79490 | 38967 ft | 477 kts | 182° |
| 2026-05-08 14:45 | 19.71534 | 7.80018 | 38965 ft | 477 kts | 181° |
| 2026-05-08 14:45 | 19.64903 | 7.80543 | 38959 ft | 477 kts | 181° |
| 2026-05-08 14:46 | 19.58242 | 7.81071 | 38957 ft | 477 kts | 181° |
| 2026-05-08 14:46 | 19.51584 | 7.81597 | 38958 ft | 477 kts | 181° |
| 2026-05-08 14:47 | 19.44918 | 7.82140 | 38951 ft | 478 kts | 181° |
| 2026-05-08 14:47 | 19.38282 | 7.82686 | 38950 ft | 478 kts | 181° |
| 2026-05-08 14:48 | 19.31587 | 7.83237 | 38944 ft | 479 kts | 181° |
| 2026-05-08 14:48 | 19.24923 | 7.83785 | 38940 ft | 479 kts | 181° |
| 2026-05-08 14:49 | 19.18245 | 7.84334 | 38939 ft | 479 kts | 181° |
| 2026-05-08 14:49 | 19.11613 | 7.84879 | 38943 ft | 478 kts | 181° |
| 2026-05-08 14:50 | 19.04907 | 7.85430 | 38941 ft | 478 kts | 181° |
| 2026-05-08 14:50 | 18.98274 | 7.85973 | 38933 ft | 479 kts | 181° |
| 2026-05-08 14:51 | 18.91587 | 7.86521 | 38923 ft | 480 kts | 181° |
| 2026-05-08 14:51 | 18.84886 | 7.87070 | 38917 ft | 479 kts | 180° |
| 2026-05-08 14:52 | 18.74853 | 7.87892 | 38905 ft | 478 kts | 180° |
| 2026-05-08 14:53 | 18.68208 | 7.88435 | 38913 ft | 477 kts | 180° |
| 2026-05-08 14:53 | 18.61562 | 7.88978 | 38914 ft | 477 kts | 180° |
| 2026-05-08 14:54 | 18.54922 | 7.89520 | 38916 ft | 478 kts | 180° |
| 2026-05-08 14:54 | 18.48252 | 7.90064 | 38919 ft | 478 kts | 180° |
| 2026-05-08 14:55 | 18.41613 | 7.90606 | 38926 ft | 477 kts | 180° |
| 2026-05-08 14:55 | 18.34966 | 7.91148 | 38926 ft | 477 kts | 180° |
| 2026-05-08 14:56 | 18.28339 | 7.91688 | 38929 ft | 476 kts | 180° |
| 2026-05-08 14:56 | 18.21685 | 7.92230 | 38938 ft | 476 kts | 180° |
| 2026-05-08 14:57 | 18.15014 | 7.92773 | 38939 ft | 476 kts | 180° |
| 2026-05-08 14:57 | 18.08405 | 7.93310 | 38937 ft | 476 kts | 180° |
| 2026-05-08 14:58 | 18.01771 | 7.93849 | 38941 ft | 476 kts | 180° |
| 2026-05-08 14:58 | 17.95132 | 7.94389 | 38939 ft | 476 kts | 180° |
| 2026-05-08 14:59 | 17.88513 | 7.94926 | 38938 ft | 476 kts | 180° |
| 2026-05-08 14:59 | 17.78540 | 7.95736 | 38947 ft | 475 kts | 180° |
| 2026-05-08 15:00 | 17.71943 | 7.96271 | 38944 ft | 475 kts | 180° |
| 2026-05-08 15:00 | 17.65307 | 7.96809 | 38934 ft | 475 kts | 180° |
| 2026-05-08 15:01 | 17.58693 | 7.97344 | 38933 ft | 475 kts | 180° |
| 2026-05-08 15:01 | 17.52073 | 7.97881 | 38924 ft | 475 kts | 180° |
| 2026-05-08 15:02 | 17.45472 | 7.98415 | 38926 ft | 474 kts | 179° |
| 2026-05-08 15:02 | 17.38893 | 7.98947 | 38939 ft | 474 kts | 179° |
| 2026-05-08 15:03 | 17.32258 | 7.99483 | 38941 ft | 474 kts | 179° |
| 2026-05-08 15:03 | 17.25689 | 8.00014 | 38939 ft | 473 kts | 179° |
| 2026-05-08 15:04 | 17.19112 | 8.00545 | 38938 ft | 473 kts | 179° |
| 2026-05-08 15:04 | 17.12483 | 8.01080 | 38922 ft | 473 kts | 179° |
| 2026-05-08 15:05 | 17.05885 | 8.01612 | 38915 ft | 473 kts | 179° |
| 2026-05-08 15:05 | 16.99273 | 8.02145 | 38910 ft | 473 kts | 179° |
| 2026-05-08 15:06 | 16.92683 | 8.02745 | 38906 ft | 473 kts | 178° |
| 2026-05-08 15:06 | 16.86091 | 8.03385 | 38907 ft | 473 kts | 178° |
| 2026-05-08 15:07 | 16.79469 | 8.04026 | 38906 ft | 474 kts | 178° |
| 2026-05-08 15:07 | 16.72881 | 8.04664 | 38898 ft | 476 kts | 178° |
| 2026-05-08 15:08 | 16.66239 | 8.05306 | 38888 ft | 477 kts | 178° |
| 2026-05-08 15:08 | 16.59601 | 8.05948 | 38885 ft | 477 kts | 178° |
| 2026-05-08 15:09 | 16.52939 | 8.06591 | 38889 ft | 477 kts | 178° |
| 2026-05-08 15:09 | 16.46309 | 8.07230 | 38883 ft | 477 kts | 177° |
| 2026-05-08 15:10 | 16.39654 | 8.07871 | 38884 ft | 478 kts | 177° |
| 2026-05-08 15:10 | 16.33014 | 8.08511 | 38883 ft | 479 kts | 177° |
| 2026-05-08 15:11 | 16.26328 | 8.09154 | 38886 ft | 479 kts | 177° |
| 2026-05-08 15:11 | 16.19667 | 8.09794 | 38886 ft | 479 kts | 177° |
| 2026-05-08 15:12 | 16.13012 | 8.10434 | 38885 ft | 479 kts | 177° |
| 2026-05-08 15:12 | 16.06340 | 8.11075 | 38896 ft | 478 kts | 177° |
| 2026-05-08 15:13 | 15.99659 | 8.11716 | 38900 ft | 479 kts | 176° |
| 2026-05-08 15:13 | 15.93002 | 8.12355 | 38903 ft | 480 kts | 176° |
| 2026-05-08 15:14 | 15.86288 | 8.12998 | 38899 ft | 480 kts | 176° |
| 2026-05-08 15:14 | 15.79616 | 8.13637 | 38895 ft | 479 kts | 176° |
| 2026-05-08 15:15 | 15.72985 | 8.14272 | 38895 ft | 479 kts | 176° |
| 2026-05-08 15:15 | 15.66298 | 8.14912 | 38892 ft | 479 kts | 176° |
| 2026-05-08 15:16 | 15.59587 | 8.15554 | 38889 ft | 479 kts | 176° |
| 2026-05-08 15:16 | 15.52948 | 8.16188 | 38892 ft | 479 kts | 176° |
| 2026-05-08 15:17 | 15.46279 | 8.16825 | 38889 ft | 479 kts | 176° |
| 2026-05-08 15:17 | 15.39622 | 8.17460 | 38886 ft | 479 kts | 176° |
| 2026-05-08 15:18 | 15.32953 | 8.18096 | 38876 ft | 478 kts | 176° |
| 2026-05-08 15:18 | 15.26304 | 8.18730 | 38875 ft | 478 kts | 176° |
| 2026-05-08 15:19 | 15.19667 | 8.19362 | 38867 ft | 478 kts | 176° |
| 2026-05-08 15:19 | 15.13000 | 8.19997 | 38862 ft | 478 kts | 176° |
| 2026-05-08 15:20 | 15.06308 | 8.20634 | 38866 ft | 478 kts | 176° |
| 2026-05-08 15:20 | 14.99657 | 8.21269 | 38862 ft | 478 kts | 176° |
| 2026-05-08 15:21 | 14.93002 | 8.21904 | 38859 ft | 478 kts | 176° |
| 2026-05-08 15:21 | 14.86372 | 8.22536 | 38867 ft | 477 kts | 176° |
| 2026-05-08 15:22 | 14.79708 | 8.23171 | 38873 ft | 477 kts | 176° |
| 2026-05-08 15:22 | 14.73091 | 8.23802 | 38869 ft | 478 kts | 176° |
| 2026-05-08 15:23 | 14.66449 | 8.24434 | 38865 ft | 477 kts | 176° |
| 2026-05-08 15:23 | 14.59790 | 8.25067 | 38865 ft | 477 kts | 176° |
| 2026-05-08 15:24 | 14.53120 | 8.25701 | 38868 ft | 477 kts | 176° |
| 2026-05-08 15:24 | 14.46515 | 8.26328 | 38871 ft | 477 kts | 176° |
| 2026-05-08 15:25 | 14.39866 | 8.26959 | 38875 ft | 476 kts | 176° |
| 2026-05-08 15:25 | 14.33218 | 8.27590 | 38871 ft | 476 kts | 176° |
| 2026-05-08 15:26 | 14.26633 | 8.28214 | 38872 ft | 477 kts | 176° |
| 2026-05-08 15:26 | 14.19972 | 8.28845 | 38871 ft | 477 kts | 176° |
| 2026-05-08 15:27 | 14.13313 | 8.29475 | 38868 ft | 477 kts | 175° |
| 2026-05-08 15:27 | 14.06688 | 8.30102 | 38868 ft | 476 kts | 175° |
| 2026-05-08 15:28 | 14.00084 | 8.30726 | 38863 ft | 475 kts | 175° |
| 2026-05-08 15:28 | 13.93466 | 8.31352 | 38859 ft | 475 kts | 175° |
| 2026-05-08 15:29 | 13.86850 | 8.31976 | 38856 ft | 475 kts | 175° |
| 2026-05-08 15:29 | 13.80225 | 8.32601 | 38858 ft | 476 kts | 175° |
| 2026-05-08 15:30 | 13.73611 | 8.33225 | 38859 ft | 476 kts | 175° |
| 2026-05-08 15:30 | 13.66983 | 8.33847 | 38860 ft | 475 kts | 175° |
| 2026-05-08 15:31 | 13.60346 | 8.34471 | 38859 ft | 474 kts | 175° |
| 2026-05-08 15:31 | 13.53763 | 8.35088 | 38860 ft | 474 kts | 175° |
| 2026-05-08 15:32 | 13.47178 | 8.35706 | 38858 ft | 474 kts | 175° |
| 2026-05-08 15:32 | 13.40546 | 8.36327 | 38858 ft | 475 kts | 175° |
| 2026-05-08 15:33 | 13.33952 | 8.36945 | 38856 ft | 475 kts | 175° |
| 2026-05-08 15:33 | 13.27327 | 8.37565 | 38856 ft | 474 kts | 175° |
| 2026-05-08 15:34 | 13.20689 | 8.38185 | 38855 ft | 474 kts | 175° |
| 2026-05-08 15:34 | 13.14118 | 8.38800 | 38861 ft | 473 kts | 175° |
| 2026-05-08 15:35 | 13.07483 | 8.39423 | 38869 ft | 474 kts | 175° |
| 2026-05-08 15:35 | 13.00887 | 8.40078 | 38867 ft | 474 kts | 175° |
| 2026-05-08 15:36 | 12.94300 | 8.40734 | 38861 ft | 474 kts | 175° |
| 2026-05-08 15:36 | 12.87689 | 8.41391 | 38869 ft | 474 kts | 175° |
| 2026-05-08 15:37 | 12.81103 | 8.42045 | 38873 ft | 473 kts | 175° |
| 2026-05-08 15:37 | 12.74523 | 8.42698 | 38871 ft | 473 kts | 175° |
| 2026-05-08 15:38 | 12.67926 | 8.43351 | 38869 ft | 474 kts | 174° |
| 2026-05-08 15:38 | 12.61311 | 8.44005 | 38868 ft | 474 kts | 174° |
| 2026-05-08 15:39 | 12.54697 | 8.44658 | 38854 ft | 474 kts | 174° |
| 2026-05-08 15:39 | 12.48109 | 8.45309 | 38854 ft | 474 kts | 174° |
| 2026-05-08 15:40 | 12.41496 | 8.45961 | 38840 ft | 474 kts | 174° |
| 2026-05-08 15:40 | 12.34896 | 8.46612 | 38848 ft | 474 kts | 174° |
| 2026-05-08 15:41 | 12.28297 | 8.47262 | 38852 ft | 474 kts | 174° |
| 2026-05-08 15:41 | 12.21675 | 8.47914 | 38852 ft | 475 kts | 174° |
| 2026-05-08 15:42 | 12.15090 | 8.48562 | 38854 ft | 474 kts | 174° |
| 2026-05-08 15:42 | 12.08457 | 8.49214 | 38857 ft | 474 kts | 174° |
| 2026-05-08 15:43 | 12.01854 | 8.49938 | 38853 ft | 474 kts | 171° |
| 2026-05-08 15:43 | 11.95291 | 8.51114 | 38856 ft | 475 kts | 169° |
| 2026-05-08 15:44 | 11.88770 | 8.52296 | 38855 ft | 474 kts | 169° |
| 2026-05-08 15:44 | 11.82213 | 8.53479 | 38850 ft | 474 kts | 170° |
| 2026-05-08 15:45 | 11.75712 | 8.54649 | 38844 ft | 474 kts | 170° |
| 2026-05-08 15:45 | 11.69182 | 8.55821 | 38858 ft | 473 kts | 170° |
| 2026-05-08 15:46 | 11.62654 | 8.56991 | 38863 ft | 474 kts | 170° |
| 2026-05-08 15:46 | 11.56107 | 8.58162 | 38869 ft | 474 kts | 170° |
| 2026-05-08 15:47 | 11.49603 | 8.59323 | 38875 ft | 474 kts | 170° |
| 2026-05-08 15:47 | 11.43028 | 8.60497 | 38879 ft | 474 kts | 170° |
| 2026-05-08 15:48 | 11.33254 | 8.62238 | 38892 ft | 474 kts | 170° |
| 2026-05-08 15:49 | 11.26736 | 8.63399 | 38898 ft | 474 kts | 170° |
| 2026-05-08 15:49 | 11.20173 | 8.64567 | 38901 ft | 474 kts | 170° |
| 2026-05-08 15:50 | 11.13621 | 8.65731 | 38906 ft | 474 kts | 170° |
| 2026-05-08 15:50 | 11.07111 | 8.66888 | 38902 ft | 474 kts | 170° |
| 2026-05-08 15:51 | 11.00587 | 8.68047 | 38895 ft | 474 kts | 170° |
| 2026-05-08 15:51 | 10.94021 | 8.69212 | 38917 ft | 474 kts | 170° |
| 2026-05-08 15:52 | 10.87482 | 8.70311 | 38940 ft | 474 kts | 173° |
| 2026-05-08 15:52 | 10.80882 | 8.71060 | 38968 ft | 474 kts | 174° |
| 2026-05-08 15:53 | 10.74275 | 8.71807 | 38985 ft | 474 kts | 174° |
| 2026-05-08 15:53 | 10.67704 | 8.72551 | 38990 ft | 473 kts | 174° |
| 2026-05-08 15:54 | 10.61132 | 8.73296 | 38991 ft | 473 kts | 174° |
| 2026-05-08 15:54 | 10.54534 | 8.74044 | 38990 ft | 473 kts | 174° |
| 2026-05-08 15:55 | 10.47921 | 8.74794 | 39000 ft | 473 kts | 174° |
| 2026-05-08 15:55 | 10.38085 | 8.75909 | 39002 ft | 473 kts | 174° |
| 2026-05-08 15:56 | 10.31512 | 8.76654 | 38996 ft | 472 kts | 174° |
| 2026-05-08 15:56 | 10.24947 | 8.77398 | 38978 ft | 472 kts | 174° |
| 2026-05-08 15:57 | 10.18433 | 8.78136 | 39006 ft | 472 kts | 174° |
| 2026-05-08 15:57 | 10.11869 | 8.78879 | 39021 ft | 471 kts | 174° |
| 2026-05-08 15:58 | 10.05282 | 8.79625 | 39024 ft | 472 kts | 174° |
| 2026-05-08 15:58 | 9.98766 | 8.80363 | 39036 ft | 471 kts | 174° |
| 2026-05-08 15:59 | 9.92198 | 8.81106 | 39049 ft | 471 kts | 174° |
| 2026-05-08 15:59 | 9.85666 | 8.81845 | 39066 ft | 471 kts | 174° |
| 2026-05-08 16:00 | 9.79101 | 8.82587 | 39068 ft | 471 kts | 174° |
| 2026-05-08 16:00 | 9.72569 | 8.83325 | 39061 ft | 471 kts | 174° |
| 2026-05-08 16:01 | 9.65957 | 8.84072 | 39046 ft | 472 kts | 174° |
| 2026-05-08 16:01 | 9.59394 | 8.84926 | 39043 ft | 472 kts | 173° |
| 2026-05-08 16:02 | 9.52862 | 8.85842 | 39050 ft | 472 kts | 173° |
| 2026-05-08 16:02 | 9.46290 | 8.86761 | 39050 ft | 473 kts | 173° |
| 2026-05-08 16:03 | 9.39757 | 8.87674 | 39055 ft | 473 kts | 173° |
| 2026-05-08 16:03 | 9.33205 | 8.88589 | 39059 ft | 473 kts | 173° |
| 2026-05-08 16:04 | 9.26609 | 8.89509 | 39060 ft | 474 kts | 173° |
| 2026-05-08 16:04 | 9.20042 | 8.90424 | 39022 ft | 475 kts | 173° |
| 2026-05-08 16:05 | 9.13445 | 8.91343 | 38975 ft | 475 kts | 173° |
| 2026-05-08 16:05 | 9.06860 | 8.92261 | 38918 ft | 476 kts | 173° |
| 2026-05-08 16:06 | 9.00263 | 8.93179 | 38867 ft | 476 kts | 173° |
| 2026-05-08 16:06 | 8.93658 | 8.94097 | 38851 ft | 476 kts | 173° |
| 2026-05-08 16:07 | 8.86979 | 8.95027 | 38843 ft | 476 kts | 173° |
| 2026-05-08 16:07 | 8.80358 | 8.95947 | 38826 ft | 477 kts | 173° |
| 2026-05-08 16:08 | 8.73757 | 8.96865 | 38819 ft | 478 kts | 172° |
| 2026-05-08 16:08 | 8.67150 | 8.97782 | 38812 ft | 478 kts | 172° |
| 2026-05-08 16:09 | 8.60532 | 8.98702 | 38813 ft | 478 kts | 172° |
| 2026-05-08 16:09 | 8.53925 | 8.99619 | 38810 ft | 478 kts | 172° |
| 2026-05-08 16:10 | 8.47303 | 9.00538 | 38808 ft | 478 kts | 172° |
| 2026-05-08 16:10 | 8.40709 | 9.01444 | 38802 ft | 478 kts | 173° |
| 2026-05-08 16:11 | 8.34028 | 9.02256 | 38794 ft | 478 kts | 173° |
| 2026-05-08 16:11 | 8.27395 | 9.03059 | 38791 ft | 478 kts | 173° |
| 2026-05-08 16:12 | 8.20734 | 9.03855 | 38780 ft | 478 kts | 173° |
| 2026-05-08 16:12 | 8.14133 | 9.04644 | 38785 ft | 477 kts | 173° |
| 2026-05-08 16:13 | 8.07475 | 9.05465 | 38786 ft | 478 kts | 172° |
| 2026-05-08 16:13 | 8.00846 | 9.06368 | 38776 ft | 478 kts | 172° |
| 2026-05-08 16:14 | 7.94214 | 9.07271 | 38778 ft | 478 kts | 172° |
| 2026-05-08 16:14 | 7.87563 | 9.08175 | 38780 ft | 478 kts | 172° |
| 2026-05-08 16:15 | 7.80948 | 9.09074 | 38795 ft | 477 kts | 172° |
| 2026-05-08 16:15 | 7.74369 | 9.09968 | 38800 ft | 477 kts | 172° |
| 2026-05-08 16:16 | 7.67735 | 9.10870 | 38804 ft | 477 kts | 172° |
| 2026-05-08 16:16 | 7.61090 | 9.11772 | 38798 ft | 478 kts | 172° |
| 2026-05-08 16:17 | 7.54495 | 9.12668 | 38797 ft | 478 kts | 172° |
| 2026-05-08 16:17 | 7.47857 | 9.13569 | 38803 ft | 478 kts | 172° |
| 2026-05-08 16:18 | 7.41224 | 9.14469 | 38816 ft | 478 kts | 172° |
| 2026-05-08 16:18 | 7.34580 | 9.15371 | 38816 ft | 478 kts | 172° |
| 2026-05-08 16:19 | 7.27902 | 9.16277 | 38826 ft | 478 kts | 172° |
| 2026-05-08 16:19 | 7.21293 | 9.17173 | 38815 ft | 477 kts | 172° |
| 2026-05-08 16:20 | 7.14677 | 9.18070 | 38817 ft | 477 kts | 171° |
| 2026-05-08 16:20 | 7.08021 | 9.18947 | 38821 ft | 478 kts | 173° |
| 2026-05-08 16:21 | 7.01356 | 9.19415 | 38832 ft | 479 kts | 175° |
| 2026-05-08 16:21 | 6.94656 | 9.19841 | 38845 ft | 478 kts | 175° |
| 2026-05-08 16:22 | 6.87990 | 9.20270 | 38867 ft | 477 kts | 175° |
| 2026-05-08 16:22 | 6.81293 | 9.20703 | 38867 ft | 476 kts | 175° |
| 2026-05-08 16:23 | 6.77951 | 9.20921 | 38744 ft | 478 kts | 175° |
| 2026-05-08 16:23 | 6.74618 | 9.21138 | 38213 ft | 485 kts | 175° |
| 2026-05-08 16:23 | 6.71218 | 9.21360 | 37670 ft | 483 kts | 175° |
| 2026-05-08 16:23 | 6.67875 | 9.21579 | 37071 ft | 481 kts | 175° |
| 2026-05-08 16:24 | 6.64487 | 9.21800 | 36451 ft | 480 kts | 175° |
| 2026-05-08 16:24 | 6.61170 | 9.22017 | 35831 ft | 480 kts | 174° |
| 2026-05-08 16:24 | 6.57796 | 9.22239 | 35210 ft | 480 kts | 174° |
| 2026-05-08 16:24 | 6.54437 | 9.22460 | 34573 ft | 482 kts | 174° |
| 2026-05-08 16:25 | 6.51058 | 9.22682 | 33944 ft | 484 kts | 174° |
| 2026-05-08 16:25 | 6.47705 | 9.22903 | 33302 ft | 485 kts | 174° |
| 2026-05-08 16:25 | 6.44312 | 9.23126 | 32607 ft | 488 kts | 174° |
| 2026-05-08 16:25 | 6.40874 | 9.23353 | 31979 ft | 491 kts | 173° |
| 2026-05-08 16:26 | 6.37445 | 9.23579 | 31306 ft | 492 kts | 173° |
| 2026-05-08 16:26 | 6.34043 | 9.23803 | 30615 ft | 495 kts | 173° |
| 2026-05-08 16:26 | 6.30582 | 9.24031 | 29980 ft | 495 kts | 173° |
| 2026-05-08 16:26 | 6.27134 | 9.24258 | 29291 ft | 493 kts | 173° |
| 2026-05-08 16:27 | 6.23737 | 9.24480 | 28658 ft | 488 kts | 173° |
| 2026-05-08 16:27 | 6.20319 | 9.24426 | 27986 ft | 488 kts | 184° |
| 2026-05-08 16:27 | 6.16988 | 9.23672 | 27320 ft | 486 kts | 197° |
| 2026-05-08 16:27 | 6.13950 | 9.22256 | 26683 ft | 483 kts | 209° |
| 2026-05-08 16:28 | 6.11218 | 9.20264 | 25951 ft | 481 kts | 218° |
| 2026-05-08 16:28 | 6.08662 | 9.18144 | 25346 ft | 474 kts | 218° |
| 2026-05-08 16:28 | 6.06131 | 9.16056 | 24703 ft | 470 kts | 218° |
| 2026-05-08 16:28 | 6.03597 | 9.13968 | 24075 ft | 465 kts | 218° |
| 2026-05-08 16:29 | 6.01116 | 9.11926 | 23473 ft | 460 kts | 218° |
| 2026-05-08 16:29 | 5.98628 | 9.09878 | 22872 ft | 456 kts | 217° |
| 2026-05-08 16:29 | 5.96197 | 9.07879 | 22241 ft | 451 kts | 217° |
| 2026-05-08 16:29 | 5.93771 | 9.05885 | 21653 ft | 446 kts | 217° |
| 2026-05-08 16:30 | 5.91407 | 9.03943 | 21073 ft | 440 kts | 217° |
| 2026-05-08 16:30 | 5.89009 | 9.01974 | 20493 ft | 436 kts | 217° |
| 2026-05-08 16:30 | 5.86670 | 9.00053 | 19900 ft | 430 kts | 217° |
| 2026-05-08 16:30 | 5.84377 | 8.98171 | 19351 ft | 426 kts | 217° |
| 2026-05-08 16:31 | 5.82082 | 8.96289 | 18780 ft | 421 kts | 217° |
| 2026-05-08 16:31 | 5.79814 | 8.94428 | 18233 ft | 417 kts | 217° |
| 2026-05-08 16:31 | 5.77559 | 8.92580 | 17682 ft | 414 kts | 217° |
| 2026-05-08 16:31 | 5.75335 | 8.90758 | 17139 ft | 410 kts | 217° |
| 2026-05-08 16:32 | 5.73134 | 8.88954 | 16596 ft | 407 kts | 217° |
| 2026-05-08 16:32 | 5.70927 | 8.87146 | 16049 ft | 404 kts | 217° |
| 2026-05-08 16:32 | 5.68764 | 8.85374 | 15514 ft | 400 kts | 217° |
| 2026-05-08 16:32 | 5.66620 | 8.83619 | 14994 ft | 395 kts | 217° |
| 2026-05-08 16:33 | 5.64514 | 8.81894 | 14488 ft | 390 kts | 217° |
| 2026-05-08 16:33 | 5.62404 | 8.80166 | 13961 ft | 385 kts | 217° |
| 2026-05-08 16:33 | 5.60351 | 8.78486 | 13461 ft | 380 kts | 217° |
| 2026-05-08 16:33 | 5.58298 | 8.76806 | 12954 ft | 375 kts | 216° |
| 2026-05-08 16:34 | 5.56295 | 8.75166 | 12467 ft | 369 kts | 217° |
| 2026-05-08 16:34 | 5.54297 | 8.73531 | 11980 ft | 363 kts | 217° |
| 2026-05-08 16:34 | 5.52358 | 8.71945 | 11505 ft | 358 kts | 217° |
| 2026-05-08 16:34 | 5.50432 | 8.70370 | 11033 ft | 353 kts | 217° |
| 2026-05-08 16:35 | 5.48531 | 8.68816 | 10560 ft | 349 kts | 217° |
| 2026-05-08 16:35 | 5.46672 | 8.67296 | 10096 ft | 345 kts | 217° |
| 2026-05-08 16:35 | 5.44824 | 8.65785 | 9640 ft | 341 kts | 217° |
| 2026-05-08 16:35 | 5.42989 | 8.64286 | 9186 ft | 337 kts | 217° |
| 2026-05-08 16:36 | 5.41168 | 8.62798 | 8733 ft | 333 kts | 217° |
| 2026-05-08 16:36 | 5.39375 | 8.61333 | 8294 ft | 329 kts | 218° |
| 2026-05-08 16:36 | 5.37616 | 8.59895 | 7921 ft | 322 kts | 218° |
| 2026-05-08 16:36 | 5.35895 | 8.58489 | 7628 ft | 313 kts | 218° |
| 2026-05-08 16:37 | 5.34183 | 8.57091 | 7126 ft | 312 kts | 218° |
| 2026-05-08 16:37 | 5.32512 | 8.55726 | 6726 ft | 306 kts | 218° |
| 2026-05-08 16:37 | 5.30882 | 8.54395 | 6326 ft | 297 kts | 218° |
| 2026-05-08 16:37 | 5.29312 | 8.53113 | 5953 ft | 289 kts | 218° |
| 2026-05-08 16:38 | 5.27752 | 8.51840 | 5563 ft | 281 kts | 219° |
| 2026-05-08 16:38 | 5.26257 | 8.50619 | 5181 ft | 272 kts | 218° |
| 2026-05-08 16:38 | 5.24821 | 8.49447 | 4850 ft | 261 kts | 219° |
| 2026-05-08 16:38 | 5.23423 | 8.48306 | 4548 ft | 254 kts | 219° |
| 2026-05-08 16:39 | 5.22058 | 8.47196 | 4177 ft | 253 kts | 217° |
| 2026-05-08 16:39 | 5.20554 | 8.46289 | 3845 ft | 249 kts | 206° |
| 2026-05-08 16:39 | 5.19010 | 8.45519 | 3521 ft | 245 kts | 206° |
| 2026-05-08 16:39 | 5.17482 | 8.44752 | 3155 ft | 244 kts | 206° |
| 2026-05-08 16:40 | 5.15960 | 8.43988 | 2837 ft | 240 kts | 206° |
| 2026-05-08 16:40 | 5.14477 | 8.43242 | 2548 ft | 236 kts | 206° |
| 2026-05-08 16:40 | 5.13053 | 8.42531 | 2484 ft | 221 kts | 206° |
| 2026-05-08 16:40 | 5.11709 | 8.41866 | 2498 ft | 206 kts | 206° |
| 2026-05-08 16:41 | 5.10421 | 8.41220 | 2497 ft | 204 kts | 206° |
| 2026-05-08 16:41 | 5.09158 | 8.40582 | 2464 ft | 206 kts | 206° |
| 2026-05-08 16:41 | 5.07867 | 8.39929 | 2184 ft | 202 kts | 206° |
| 2026-05-08 16:42 | 5.05537 | 8.38749 | 1721 ft | 172 kts | 206° |
| 2026-05-08 16:42 | 5.04503 | 8.38225 | 1484 ft | 161 kts | 206° |
| 2026-05-08 16:42 | 5.03553 | 8.37744 | 1269 ft | 143 kts | 206° |
| 2026-05-08 16:42 | 5.02682 | 8.37303 | 1108 ft | 137 kts | 206° |
| 2026-05-08 16:43 | 5.01837 | 8.36876 | 911 ft | 132 kts | 206° |
| 2026-05-08 16:43 | 5.01008 | 8.36457 | 746 ft | 132 kts | 205° |
| 2026-05-08 16:43 | 5.00182 | 8.36045 | 563 ft | 132 kts | 205° |
| 2026-05-08 16:43 | 4.99350 | 8.35620 | 411 ft | 134 kts | 206° |
| 2026-05-08 16:44 | 4.98532 | 8.35200 | 253 ft | 129 kts | 205° |
| 2026-05-08 16:44 | 4.97800 | 8.34827 | 221 ft | 103 kts | 206° |
| 2026-05-08 16:44 | 4.97317 | 8.34584 | 222 ft | 50 kts | 206° |
| 2026-05-08 16:44 | 4.97105 | 8.34479 | 224 ft | 23 kts | 207° |
| 2026-05-08 16:45 | 4.97018 | 8.34442 | 224 ft | 9 kts | 160° |
| 2026-05-08 16:45 | 4.96987 | 8.34499 | 225 ft | 7 kts | 116° |
| 2026-05-08 16:45 | 4.96965 | 8.34542 | 225 ft | 6 kts | 117° |
| 2026-05-08 16:45 | 4.96947 | 8.34577 | 224 ft | 6 kts | 109° |
| 2026-05-08 16:46 | 4.96952 | 8.34626 | 224 ft | 7 kts | 109° |
| 2026-05-08 16:46 | 4.96929 | 8.34647 | 221 ft | 2 kts | 203° |
| 2026-05-08 16:46 | 4.96926 | 8.34629 | 223 ft | 0 kts | 251° |